Time;durP1;ratioP1;P1;durP2;ratioP2;P2;SDS_P1;SDS_P2;PMS_P1;PMS_P2;Temp;Humidity;BMP_temperature;BMP_pressure;BME280_temperature;BME280_humidity;BME280_pressure;Samples;Min_cycle;Max_cycle;Signal;HPM_P1;HPM_P2
2024/01/16 00:02:10;;;;;;;0.70;0.70;;;;;;;-146.42;100.00;61981.06;4954649;28;20186;-66
2024/01/16 00:04:37;;;;;;;0.73;0.73;;;;;;;-146.42;100.00;61981.06;4954636;28;20218;-66
2024/01/16 00:07:03;;;;;;;0.70;0.70;;;;;;;-146.42;100.00;61981.06;4955145;28;20175;-66
2024/01/16 00:09:28;;;;;;;0.60;0.60;;;;;;;-146.42;100.00;61981.06;4955127;28;20680;-65
2024/01/16 00:11:53;;;;;;;4.80;3.47;;;;;;;-146.42;100.00;61981.06;4955456;28;20675;-66
2024/01/16 00:14:19;;;;;;;0.60;0.60;;;;;;;-146.42;100.00;61981.06;4955054;28;20166;-66
2024/01/16 00:16:48;;;;;;;0.40;0.40;;;;;;;-146.42;100.00;61981.06;4954633;28;20210;-66
2024/01/16 00:19:14;;;;;;;1.00;0.80;;;;;;;-146.42;100.00;61981.06;4955583;28;20209;-65
2024/01/16 00:21:46;;;;;;;0.50;0.50;;;;;;;-146.42;100.00;61981.06;4954981;28;20206;-65
2024/01/16 00:24:12;;;;;;;0.60;0.60;;;;;;;-146.42;100.00;61981.06;4954237;28;20241;-66
2024/01/16 00:26:37;;;;;;;0.43;0.43;;;;;;;-146.42;100.00;61981.06;4954316;28;20687;-65
2024/01/16 00:29:03;;;;;;;0.60;0.60;;;;;;;-146.42;100.00;61981.06;4954284;28;20174;-66
2024/01/16 00:31:28;;;;;;;0.80;0.80;;;;;;;-146.42;100.00;61981.06;4954293;28;20179;-65
2024/01/16 00:33:54;;;;;;;0.53;0.53;;;;;;;-146.42;100.00;61981.06;4954200;28;20178;-66
2024/01/16 00:36:19;;;;;;;0.50;0.50;;;;;;;-146.42;100.00;61981.06;4954165;28;20171;-65
2024/01/16 00:38:45;;;;;;;0.70;0.70;;;;;;;-146.42;100.00;61981.06;4954158;28;20246;-66
2024/01/16 00:41:14;;;;;;;2.10;2.00;;;;;;;-146.42;100.00;61981.06;4954265;28;20179;-65
2024/01/16 00:43:40;;;;;;;0.57;0.57;;;;;;;-146.42;100.00;61981.06;4953901;28;20234;-66
2024/01/16 00:46:06;;;;;;;2.33;1.37;;;;;;;-146.42;100.00;61981.06;4953318;28;20217;-65
2024/01/16 00:48:31;;;;;;;7.10;2.00;;;;;;;-146.42;100.00;61981.06;4954070;28;20640;-65
2024/01/16 00:50:57;;;;;;;1.07;1.07;;;;;;;-146.42;100.00;61981.06;4953969;28;20233;-65
2024/01/16 00:53:22;;;;;;;0.50;0.50;;;;;;;-146.42;100.00;61981.06;4953851;28;20169;-65
2024/01/16 00:55:48;;;;;;;1.90;0.57;;;;;;;-146.42;100.00;61981.06;4953878;28;20544;-65
2024/01/16 00:58:13;;;;;;;0.40;0.40;;;;;;;-146.42;100.00;61981.06;4953579;28;20226;-65
2024/01/16 01:00:38;;;;;;;0.40;0.40;;;;;;;-146.42;100.00;61981.06;4953844;28;20675;-65
2024/01/16 01:03:04;;;;;;;0.40;0.40;;;;;;;-146.42;100.00;61981.06;4953661;28;20202;-65
2024/01/16 01:05:30;;;;;;;0.40;0.40;;;;;;;-146.42;100.00;61981.06;4953608;28;20175;-65
2024/01/16 01:07:56;;;;;;;1.40;1.37;;;;;;;-146.42;100.00;61981.06;4953598;28;20209;-65
2024/01/16 01:10:22;;;;;;;0.60;0.60;;;;;;;-146.42;100.00;61981.06;4953714;28;20189;-65
2024/01/16 01:12:48;;;;;;;0.50;0.50;;;;;;;-146.42;100.00;61981.06;4953436;28;20565;-65
2024/01/16 01:15:16;;;;;;;0.67;0.67;;;;;;;-146.42;100.00;61981.06;4953346;28;20586;-65
2024/01/16 01:17:42;;;;;;;0.50;0.50;;;;;;;-146.42;100.00;61981.06;4953457;28;20178;-66
2024/01/16 01:20:08;;;;;;;0.93;0.93;;;;;;;-146.42;100.00;61981.06;4953152;28;20178;-65
2024/01/16 01:22:34;;;;;;;0.87;0.87;;;;;;;-146.42;100.00;61981.06;4953129;28;20182;-65
2024/01/16 01:25:00;;;;;;;0.70;0.70;;;;;;;-146.42;100.00;61981.06;4953347;28;20178;-66
2024/01/16 01:27:25;;;;;;;0.70;0.70;;;;;;;-146.42;100.00;61981.06;4953229;28;20214;-65
2024/01/16 01:29:51;;;;;;;5.83;3.03;;;;;;;-146.42;100.00;61981.06;4953386;28;20179;-65
2024/01/16 01:32:16;;;;;;;1.60;1.17;;;;;;;-146.42;100.00;61981.06;4953149;28;20188;-65
2024/01/16 01:34:42;;;;;;;0.70;0.70;;;;;;;-146.42;100.00;61981.06;4953133;28;20179;-65
2024/01/16 01:37:08;;;;;;;0.50;0.50;;;;;;;-146.42;100.00;61981.06;4953352;28;20246;-65
2024/01/16 01:39:33;;;;;;;0.97;0.97;;;;;;;-146.42;100.00;61981.06;4952956;28;20182;-65
2024/01/16 01:41:59;;;;;;;2.63;0.87;;;;;;;-146.42;100.00;61981.06;4952867;28;20174;-65
2024/01/16 01:44:25;;;;;;;0.80;0.80;;;;;;;-146.42;100.00;61981.06;4952864;28;20265;-65
2024/01/16 01:46:53;;;;;;;0.53;0.53;;;;;;;-146.42;100.00;61981.06;4952746;28;20206;-66
2024/01/16 01:49:19;;;;;;;0.77;0.77;;;;;;;-146.42;100.00;61981.06;4952952;28;20178;-66
2024/01/16 01:51:45;;;;;;;3.30;2.00;;;;;;;-146.42;100.00;61981.06;4952931;28;20562;-66
2024/01/16 01:54:12;;;;;;;0.50;0.50;;;;;;;-146.42;100.00;61981.06;4952695;28;20258;-66
2024/01/16 01:56:39;;;;;;;0.40;0.40;;;;;;;-146.42;100.00;61981.06;4952505;28;20223;-66
2024/01/16 01:59:06;;;;;;;0.50;0.50;;;;;;;-146.42;100.00;61981.06;4952711;28;20261;-66
2024/01/16 02:01:34;;;;;;;0.50;0.50;;;;;;;-146.42;100.00;61981.06;4952739;28;20656;-66
2024/01/16 02:04:01;;;;;;;0.50;0.50;;;;;;;-146.42;100.00;61981.06;4952558;28;20202;-66
2024/01/16 02:06:28;;;;;;;0.50;0.50;;;;;;;-146.42;100.00;61981.06;4952602;28;20174;-66
2024/01/16 02:08:53;;;;;;;0.60;0.60;;;;;;;-146.42;100.00;61981.06;4952529;28;20182;-66
2024/01/16 02:11:19;;;;;;;2.00;1.90;;;;;;;-146.42;100.00;61981.06;4952571;28;20229;-66
2024/01/16 02:13:45;;;;;;;1.17;1.07;;;;;;;-146.42;100.00;61981.06;4952461;28;20229;-66
2024/01/16 02:16:23;;;;;;;4.20;0.97;;;;;;;-146.42;100.00;61981.06;4952495;28;20171;-66
2024/01/16 02:18:50;;;;;;;0.50;0.50;;;;;;;-146.42;100.00;61981.06;4952958;28;20261;-66
2024/01/16 02:21:20;;;;;;;0.40;0.40;;;;;;;-146.42;100.00;61981.06;4952631;28;20177;-66
2024/01/16 02:23:46;;;;;;;0.40;0.40;;;;;;;-146.42;100.00;61981.06;4952233;28;20246;-66
2024/01/16 02:26:13;;;;;;;2.53;2.33;;;;;;;-146.42;100.00;61981.06;4952421;28;20230;-66
2024/01/16 02:28:39;;;;;;;3.70;2.30;;;;;;;-146.42;100.00;61981.06;4952406;28;20209;-65
2024/01/16 02:31:04;;;;;;;0.40;0.40;;;;;;;-146.42;100.00;61981.06;4952526;28;20183;-66
2024/01/16 02:33:30;;;;;;;0.70;0.70;;;;;;;-146.42;100.00;61981.06;4974846;28;20188;-66
2024/01/16 02:35:55;;;;;;;0.40;0.40;;;;;;;-146.42;100.00;61981.06;4991250;28;21202;-65
2024/01/16 02:38:21;;;;;;;1.67;1.67;;;;;;;-146.42;100.00;61981.06;4991139;28;20240;-65
2024/01/16 02:40:46;;;;;;;0.53;0.53;;;;;;;-146.42;100.00;61981.06;4990912;28;20188;-66
2024/01/16 02:43:11;;;;;;;0.40;0.40;;;;;;;-146.42;100.00;61981.06;4990903;28;20289;-66
2024/01/16 02:45:37;;;;;;;0.43;0.43;;;;;;;-146.42;100.00;61981.06;4991030;28;20571;-66
2024/01/16 02:48:03;;;;;;;0.50;0.50;;;;;;;-146.42;100.00;61981.06;4990998;28;20169;-66
2024/01/16 02:50:28;;;;;;;0.40;0.40;;;;;;;-146.42;100.00;61981.06;4990898;28;20177;-66
2024/01/16 02:52:54;;;;;;;0.67;0.67;;;;;;;-146.42;100.00;61981.06;4990996;28;20177;-66
2024/01/16 02:55:19;;;;;;;2.70;2.50;;;;;;;-146.42;100.00;61981.06;4990832;28;20177;-66
2024/01/16 02:57:45;;;;;;;0.40;0.40;;;;;;;-146.42;100.00;61981.06;4990611;28;20307;-66
2024/01/16 03:00:11;;;;;;;0.63;0.63;;;;;;;-146.42;100.00;61981.06;4990892;28;20572;-66
2024/01/16 03:02:36;;;;;;;0.40;0.40;;;;;;;-146.42;100.00;61981.06;4990727;28;20181;-66
2024/01/16 03:05:05;;;;;;;0.50;0.50;;;;;;;-146.42;100.00;61981.06;4990752;28;20205;-66
2024/01/16 03:07:31;;;;;;;0.40;0.40;;;;;;;-146.42;100.00;61981.06;4990710;28;20173;-66
2024/01/16 03:09:56;;;;;;;4.63;0.90;;;;;;;-146.42;100.00;61981.06;4993909;28;20207;-66
2024/01/16 03:12:22;;;;;;;0.40;0.40;;;;;;;-146.42;100.00;61981.06;4994448;28;20193;-65
2024/01/16 03:14:47;;;;;;;0.80;0.80;;;;;;;-146.42;100.00;61981.06;4994719;28;20279;-65
2024/01/16 03:17:13;;;;;;;0.70;0.70;;;;;;;-146.42;100.00;61981.06;4994404;28;20183;-65
2024/01/16 03:19:38;;;;;;;0.50;0.50;;;;;;;-146.42;100.00;61981.06;4994423;28;20181;-65
2024/01/16 03:22:04;;;;;;;3.10;2.87;;;;;;;-146.42;100.00;61981.06;4976895;28;20187;-66
2024/01/16 03:24:29;;;;;;;0.40;0.40;;;;;;;-146.42;100.00;61981.06;4994172;28;20232;-66
2024/01/16 03:26:55;;;;;;;0.40;0.40;;;;;;;-146.42;100.00;61981.06;4994167;28;20655;-66
2024/01/16 03:29:20;;;;;;;0.57;0.57;;;;;;;-146.42;100.00;61981.06;4983240;28;20266;-66
2024/01/16 03:31:46;;;;;;;0.87;0.87;;;;;;;-146.42;100.00;61981.06;4955294;28;20178;-65
2024/01/16 03:34:11;;;;;;;1.93;1.43;;;;;;;-146.42;100.00;61981.06;4955328;28;20236;-65
2024/01/16 03:36:37;;;;;;;0.40;0.40;;;;;;;-146.42;100.00;61981.06;4955283;28;20186;-66
2024/01/16 03:39:03;;;;;;;0.60;0.60;;;;;;;-146.42;100.00;61981.06;4955265;28;20189;-66
2024/01/16 03:41:28;;;;;;;0.53;0.43;;;;;;;-146.42;100.00;61981.06;4955232;28;20619;-66
2024/01/16 03:43:56;;;;;;;0.40;0.40;;;;;;;-146.42;100.00;61981.06;4955124;28;20198;-66
2024/01/16 03:46:22;;;;;;;0.50;0.50;;;;;;;-146.42;100.00;61981.06;4955047;28;20181;-66
2024/01/16 03:48:48;;;;;;;0.30;0.30;;;;;;;-146.42;100.00;61981.06;4955068;28;20178;-66
2024/01/16 03:51:15;;;;;;;0.67;0.67;;;;;;;-146.42;100.00;61981.06;4955132;28;20179;-66
2024/01/16 03:53:41;;;;;;;0.40;0.40;;;;;;;-146.42;100.00;61981.06;4954886;28;20653;-66
2024/01/16 03:56:07;;;;;;;0.73;0.73;;;;;;;-146.42;100.00;61981.06;4954932;28;20245;-66
2024/01/16 03:58:33;;;;;;;0.50;0.50;;;;;;;-146.42;100.00;61981.06;4954929;28;20606;-66
2024/01/16 04:00:59;;;;;;;0.77;0.77;;;;;;;-146.42;100.00;61981.06;4955097;28;20175;-65
2024/01/16 04:03:24;;;;;;;0.40;0.40;;;;;;;-146.42;100.00;61981.06;4954855;28;20209;-65
2024/01/16 04:05:50;;;;;;;0.87;0.80;;;;;;;-146.42;100.00;61981.06;4954802;28;20555;-65
2024/01/16 04:08:16;;;;;;;0.93;0.93;;;;;;;-146.42;100.00;61981.06;4954782;28;20603;-65
2024/01/16 04:10:41;;;;;;;0.50;0.50;;;;;;;-146.42;100.00;61981.06;4954710;28;20253;-65
2024/01/16 04:13:07;;;;;;;0.73;0.73;;;;;;;-146.42;100.00;61981.06;4954637;28;20187;-65
2024/01/16 04:15:33;;;;;;;0.40;0.40;;;;;;;-146.42;100.00;61981.06;4954525;28;20181;-65
2024/01/16 04:18:00;;;;;;;0.90;0.90;;;;;;;-146.42;100.00;61981.06;4954521;28;20170;-65
2024/01/16 04:20:25;;;;;;;0.43;0.43;;;;;;;-146.42;100.00;61981.06;4953315;28;20175;-65
2024/01/16 04:22:51;;;;;;;0.40;0.40;;;;;;;-146.42;100.00;61981.06;4954355;28;20251;-65
2024/01/16 04:25:16;;;;;;;0.40;0.40;;;;;;;-146.42;100.00;61981.06;4954524;28;20605;-65
2024/01/16 04:27:42;;;;;;;0.30;0.30;;;;;;;-146.42;100.00;61981.06;4954432;28;20225;-64
2024/01/16 04:30:08;;;;;;;0.50;0.50;;;;;;;-146.42;100.00;61981.06;4954290;28;20572;-64
2024/01/16 04:32:34;;;;;;;0.70;0.70;;;;;;;-146.42;100.00;61981.06;4954368;28;20722;-65
2024/01/16 04:35:00;;;;;;;0.50;0.50;;;;;;;-146.42;100.00;61981.06;4954213;28;20171;-65
2024/01/16 04:37:25;;;;;;;0.50;0.50;;;;;;;-146.42;100.00;61981.06;4954164;28;20187;-64
2024/01/16 04:39:51;;;;;;;0.60;0.60;;;;;;;-146.42;100.00;61981.06;4953071;29;20249;-65
2024/01/16 04:42:17;;;;;;;0.50;0.50;;;;;;;-146.42;100.00;61981.06;4954429;28;20182;-65
2024/01/16 04:44:43;;;;;;;0.50;0.50;;;;;;;-146.42;100.00;61981.06;4954102;28;20587;-66
2024/01/16 04:47:09;;;;;;;0.63;0.63;;;;;;;-146.42;100.00;61981.06;4954021;28;20535;-66
2024/01/16 04:49:34;;;;;;;1.03;1.03;;;;;;;-146.42;100.00;61981.06;4954017;28;20185;-65
2024/01/16 04:52:00;;;;;;;0.60;0.60;;;;;;;-146.42;100.00;61981.06;4953939;28;20629;-65
2024/01/16 04:54:25;;;;;;;0.50;0.50;;;;;;;-146.42;100.00;61981.06;4953879;28;20217;-65
2024/01/16 04:56:51;;;;;;;0.70;0.70;;;;;;;-146.42;100.00;61981.06;4953473;28;20230;-65
2024/01/16 04:59:16;;;;;;;0.60;0.60;;;;;;;-146.42;100.00;61981.06;4953747;29;20186;-65
2024/01/16 05:01:42;;;;;;;1.40;1.40;;;;;;;-146.42;100.00;61981.06;4953753;29;20178;-65
2024/01/16 05:04:08;;;;;;;0.60;0.60;;;;;;;-146.42;100.00;61981.06;4953543;29;20208;-66
2024/01/16 05:06:34;;;;;;;0.60;0.60;;;;;;;-146.42;100.00;61981.06;4953643;29;20209;-66
2024/01/16 05:09:00;;;;;;;0.70;0.70;;;;;;;-146.42;100.00;61981.06;4953553;29;20178;-65
2024/01/16 05:11:25;;;;;;;0.40;0.40;;;;;;;-146.42;100.00;61981.06;4952453;29;20538;-64
2024/01/16 05:13:57;;;;;;;0.80;0.80;;;;;;;-146.42;100.00;61981.06;4953442;29;20251;-64
2024/01/16 05:16:24;;;;;;;0.50;0.50;;;;;;;-146.42;100.00;61981.06;4953438;29;20170;-64
2024/01/16 05:18:50;;;;;;;0.40;0.40;;;;;;;-146.42;100.00;61981.06;4953435;29;20175;-64
2024/01/16 05:21:15;;;;;;;0.57;0.57;;;;;;;-146.42;100.00;61981.06;4953269;29;20221;-64
2024/01/16 05:23:41;;;;;;;0.50;0.50;;;;;;;-146.42;100.00;61981.06;4953173;29;20588;-64
2024/01/16 05:26:06;;;;;;;0.70;0.70;;;;;;;-146.42;100.00;61981.06;4953230;29;20193;-64
2024/01/16 05:28:31;;;;;;;0.50;0.50;;;;;;;-146.42;100.00;61981.06;4953285;29;20210;-64
2024/01/16 05:30:57;;;;;;;0.50;0.50;;;;;;;-146.42;100.00;61981.06;4952993;28;20197;-65
2024/01/16 05:33:22;;;;;;;0.50;0.50;;;;;;;-146.42;100.00;61981.06;4953384;29;20182;-65
2024/01/16 05:35:48;;;;;;;0.40;0.40;;;;;;;-146.42;100.00;61981.06;4953087;29;20185;-64
2024/01/16 05:38:13;;;;;;;1.00;1.00;;;;;;;-146.42;100.00;61981.06;4953027;29;20179;-65
2024/01/16 05:40:39;;;;;;;0.60;0.60;;;;;;;-146.42;100.00;61981.06;4952952;29;20716;-65
2024/01/16 05:43:05;;;;;;;0.40;0.40;;;;;;;-146.42;100.00;61981.06;4952907;29;20688;-65
2024/01/16 05:45:30;;;;;;;0.40;0.40;;;;;;;-146.42;100.00;61981.06;4952931;29;20206;-65
2024/01/16 05:47:56;;;;;;;0.50;0.50;;;;;;;-146.42;100.00;61981.06;4952889;29;20198;-66
2024/01/16 05:50:21;;;;;;;0.40;0.40;;;;;;;-146.42;100.00;61981.06;4952876;29;20178;-65
2024/01/16 05:52:47;;;;;;;0.50;0.50;;;;;;;-146.42;100.00;61981.06;4952915;29;20574;-65
2024/01/16 05:55:13;;;;;;;0.40;0.40;;;;;;;-146.42;100.00;61981.06;4952378;29;20178;-65
2024/01/16 05:57:38;;;;;;;0.40;0.40;;;;;;;-146.42;100.00;61981.06;4952212;29;20885;-65
2024/01/16 06:00:05;;;;;;;0.40;0.40;;;;;;;-146.42;100.00;61981.06;4952919;29;20186;-65
2024/01/16 06:02:31;;;;;;;0.40;0.40;;;;;;;-146.42;100.00;61981.06;4952755;29;20178;-65
2024/01/16 06:04:57;;;;;;;0.40;0.40;;;;;;;-146.42;100.00;61981.06;4952641;29;20221;-65
2024/01/16 06:07:23;;;;;;;0.40;0.40;;;;;;;-146.42;100.00;61981.06;4952656;29;20179;-65
2024/01/16 06:09:48;;;;;;;0.50;0.50;;;;;;;-146.42;100.00;61981.06;4935573;29;20178;-65
2024/01/16 06:12:14;;;;;;;0.40;0.40;;;;;;;-146.42;100.00;61981.06;4952806;29;20302;-65
2024/01/16 06:14:39;;;;;;;0.67;0.67;;;;;;;-146.42;100.00;61981.06;4952378;29;20182;-65
2024/01/16 06:17:08;;;;;;;0.40;0.40;;;;;;;-146.42;100.00;61981.06;4952398;29;20202;-65
2024/01/16 06:19:33;;;;;;;0.40;0.40;;;;;;;-146.42;100.00;61981.06;4952647;29;20270;-65
2024/01/16 06:21:59;;;;;;;0.40;0.40;;;;;;;-146.42;100.00;61981.06;4952505;28;20256;-65
2024/01/16 06:24:25;;;;;;;0.50;0.50;;;;;;;-146.42;100.00;61981.06;4952387;28;20754;-65
2024/01/16 06:26:50;;;;;;;0.80;0.77;;;;;;;-146.42;100.00;61981.06;4952334;29;20174;-65
2024/01/16 06:29:16;;;;;;;0.40;0.40;;;;;;;-146.42;100.00;61981.06;4952485;29;20190;-64
2024/01/16 06:31:41;;;;;;;0.60;0.60;;;;;;;-146.42;100.00;61981.06;4952218;29;20181;-65
2024/01/16 06:34:07;;;;;;;0.70;0.70;;;;;;;-146.42;100.00;61981.06;4952226;28;20261;-65
2024/01/16 06:36:32;;;;;;;0.40;0.40;;;;;;;-146.42;100.00;61981.06;4952326;29;20178;-65
2024/01/16 06:38:58;;;;;;;2.10;1.90;;;;;;;-146.42;100.00;61981.06;4952477;29;20640;-65
2024/01/16 06:41:23;;;;;;;1.33;1.23;;;;;;;-146.42;100.00;61981.06;4952445;28;20174;-64
2024/01/16 06:43:49;;;;;;;1.13;1.03;;;;;;;-146.42;100.00;61981.06;4953667;28;20202;-64
2024/01/16 06:46:14;;;;;;;0.70;0.70;;;;;;;-146.42;100.00;61981.06;4956224;29;20286;-65
2024/01/16 06:48:40;;;;;;;0.50;0.50;;;;;;;-146.42;100.00;61981.06;4956138;29;20174;-65
2024/01/16 06:51:05;;;;;;;0.50;0.50;;;;;;;-146.42;100.00;61981.06;4956371;29;20619;-65
2024/01/16 06:53:31;;;;;;;0.80;0.80;;;;;;;-146.42;100.00;61981.06;4956118;29;20245;-64
2024/01/16 06:55:56;;;;;;;0.40;0.40;;;;;;;-146.42;100.00;61981.06;4956028;28;20368;-65
2024/01/16 06:58:22;;;;;;;0.50;0.50;;;;;;;-146.42;100.00;61981.06;4990679;28;20677;-64
2024/01/16 07:00:47;;;;;;;0.50;0.50;;;;;;;-146.42;100.00;61981.06;4994665;28;20181;-64
2024/01/16 07:03:13;;;;;;;0.50;0.50;;;;;;;-146.42;100.00;61981.06;4994642;28;20193;-64
2024/01/16 07:05:40;;;;;;;0.50;0.50;;;;;;;-146.42;100.00;61981.06;4994517;28;20250;-64
2024/01/16 07:08:07;;;;;;;0.50;0.50;;;;;;;-146.42;100.00;61981.06;4994611;28;20662;-64
2024/01/16 07:10:33;;;;;;;0.50;0.50;;;;;;;-146.42;100.00;61981.06;4977462;28;20190;-65
2024/01/16 07:12:59;;;;;;;0.50;0.50;;;;;;;-146.42;100.00;61981.06;4964403;28;20260;-65
2024/01/16 07:15:25;;;;;;;0.40;0.40;;;;;;;-146.42;100.00;61981.06;4994720;28;20742;-65
2024/01/16 07:17:51;;;;;;;0.87;0.87;;;;;;;-146.42;100.00;61981.06;4994320;28;20267;-64
2024/01/16 07:20:16;;;;;;;0.73;0.70;;;;;;;-146.42;100.00;61981.06;4994251;28;20181;-65
2024/01/16 07:22:42;;;;;;;0.40;0.40;;;;;;;-146.42;100.00;61981.06;4994282;28;20673;-65
2024/01/16 07:25:08;;;;;;;2.10;1.50;;;;;;;-146.42;100.00;61981.06;4994105;28;20196;-65
2024/01/16 07:27:34;;;;;;;0.40;0.40;;;;;;;-146.42;100.00;61981.06;4994121;28;20181;-64
2024/01/16 07:30:00;;;;;;;0.60;0.60;;;;;;;-146.42;100.00;61981.06;4994240;28;20766;-64
2024/01/16 07:32:25;;;;;;;0.40;0.40;;;;;;;-146.42;100.00;61981.06;4994125;28;20251;-64
2024/01/16 07:34:52;;;;;;;0.50;0.50;;;;;;;-146.42;100.00;61981.06;4994165;28;20173;-65
2024/01/16 07:37:18;;;;;;;2.83;1.23;;;;;;;-146.42;100.00;61981.06;4994175;28;20184;-64
2024/01/16 07:39:44;;;;;;;0.97;0.97;;;;;;;-146.42;100.00;61981.06;4994226;28;20169;-64
2024/01/16 07:42:09;;;;;;;0.77;0.70;;;;;;;-146.42;100.00;61981.06;4993956;28;20176;-65
2024/01/16 07:44:35;;;;;;;0.50;0.50;;;;;;;-146.42;100.00;61981.06;4993787;28;20335;-65
2024/01/16 07:47:00;;;;;;;0.40;0.40;;;;;;;-146.42;100.00;61981.06;4993919;28;20230;-65
2024/01/16 07:49:26;;;;;;;0.50;0.50;;;;;;;-146.42;100.00;61981.06;4993838;28;20181;-65
2024/01/16 07:51:51;;;;;;;0.83;0.83;;;;;;;-146.42;100.00;61981.06;4993697;28;20558;-64
2024/01/16 07:54:17;;;;;;;0.40;0.40;;;;;;;-146.42;100.00;61981.06;4993316;28;20173;-65
2024/01/16 07:56:43;;;;;;;1.37;1.37;;;;;;;-146.42;100.00;61981.06;4993515;28;20232;-64
2024/01/16 07:59:08;;;;;;;0.50;0.50;;;;;;;-146.42;100.00;61981.06;4993571;28;20264;-64
2024/01/16 08:01:34;;;;;;;0.50;0.50;;;;;;;-146.42;100.00;61981.06;4993676;28;20181;-64
2024/01/16 08:03:59;;;;;;;0.50;0.50;;;;;;;-146.42;100.00;61981.06;4976069;28;20718;-64
2024/01/16 08:06:26;;;;;;;2.00;1.90;;;;;;;-146.42;100.00;61981.06;4993538;28;20563;-63
2024/01/16 08:08:52;;;;;;;0.47;0.47;;;;;;;-146.42;100.00;61981.06;4993409;28;20181;-64
2024/01/16 08:11:18;;;;;;;0.57;0.57;;;;;;;-146.42;100.00;61981.06;4993410;28;20709;-64
2024/01/16 08:13:44;;;;;;;0.40;0.40;;;;;;;-146.42;100.00;61981.06;4974587;28;20201;-64
2024/01/16 08:16:10;;;;;;;0.50;0.50;;;;;;;-146.42;100.00;61981.06;4973821;28;20178;-65
2024/01/16 08:18:36;;;;;;;0.50;0.50;;;;;;;-146.42;100.00;61981.06;4974037;28;20178;-65
2024/01/16 08:21:01;;;;;;;0.43;0.43;;;;;;;-146.42;100.00;61981.06;4973951;28;20177;-64
2024/01/16 08:23:27;;;;;;;0.80;0.80;;;;;;;-146.42;100.00;61981.06;4973593;28;20201;-66
2024/01/16 08:25:53;;;;;;;1.93;1.80;;;;;;;-146.42;100.00;61981.06;4964701;28;20606;-65
2024/01/16 08:28:19;;;;;;;1.33;1.33;;;;;;;-146.42;100.00;61981.06;4955432;28;20189;-66
2024/01/16 08:30:44;;;;;;;0.50;0.50;;;;;;;-146.42;100.00;61981.06;4972437;28;20568;-66
2024/01/16 08:33:11;;;;;;;0.40;0.40;;;;;;;-146.42;100.00;61981.06;4954884;28;20193;-65
2024/01/16 08:35:37;;;;;;;0.40;0.40;;;;;;;-146.42;100.00;61981.06;4972618;28;20178;-65
2024/01/16 08:38:03;;;;;;;0.43;0.43;;;;;;;-146.42;100.00;61981.06;4972444;28;20200;-65
2024/01/16 08:40:28;;;;;;;0.50;0.50;;;;;;;-146.42;100.00;61981.06;4971879;28;20197;-65
2024/01/16 08:42:54;;;;;;;0.50;0.50;;;;;;;-146.42;100.00;61981.06;4972461;28;20188;-65
2024/01/16 08:45:23;;;;;;;0.60;0.60;;;;;;;-146.42;100.00;61981.06;4972154;28;20225;-66
2024/01/16 08:47:52;;;;;;;0.50;0.50;;;;;;;-146.42;100.00;61981.06;4972028;28;20173;-66
2024/01/16 08:50:17;;;;;;;1.23;1.13;;;;;;;-146.42;100.00;61981.06;4972212;28;20181;-66
2024/01/16 08:52:43;;;;;;;0.60;0.60;;;;;;;-146.42;100.00;61981.06;4972054;28;21022;-66
2024/01/16 08:55:09;;;;;;;0.50;0.50;;;;;;;-146.42;100.00;61981.06;4971775;28;20174;-66
2024/01/16 08:57:36;;;;;;;0.47;0.47;;;;;;;-146.42;100.00;61981.06;4971937;28;20228;-66
2024/01/16 09:00:05;;;;;;;0.60;0.60;;;;;;;-146.42;100.00;61981.06;4972051;28;20236;-66
2024/01/16 09:02:31;;;;;;;0.63;0.63;;;;;;;-146.42;100.00;61981.06;4971535;28;20229;-65
2024/01/16 09:04:58;;;;;;;0.40;0.40;;;;;;;-146.42;100.00;61981.06;4971697;28;20996;-65
2024/01/16 09:07:24;;;;;;;0.60;0.60;;;;;;;-146.42;100.00;61981.06;4971232;28;20286;-66
2024/01/16 09:09:50;;;;;;;0.40;0.40;;;;;;;-146.42;100.00;61981.06;4971607;28;20165;-65
2024/01/16 09:12:15;;;;;;;0.90;0.90;;;;;;;-146.42;100.00;61981.06;4971782;28;20695;-66
2024/01/16 09:14:41;;;;;;;3.57;0.80;;;;;;;-146.42;100.00;61981.06;4971781;28;20174;-65
2024/01/16 09:17:07;;;;;;;0.40;0.40;;;;;;;-146.42;100.00;61981.06;4971465;28;20182;-65
2024/01/16 09:19:32;;;;;;;0.40;0.40;;;;;;;-146.42;100.00;61981.06;4954271;28;20266;-65
2024/01/16 09:21:58;;;;;;;0.40;0.40;;;;;;;-146.42;100.00;61981.06;4971793;28;20204;-65
2024/01/16 09:24:23;;;;;;;1.90;0.87;;;;;;;-146.42;100.00;61981.06;4971189;28;20205;-65
2024/01/16 09:26:49;;;;;;;1.20;1.20;;;;;;;-146.42;100.00;61981.06;4972569;28;20348;-64
2024/01/16 09:29:14;;;;;;;0.50;0.50;;;;;;;-146.42;100.00;61981.06;4972531;28;20216;-65
2024/01/16 09:31:41;;;;;;;1.20;1.20;;;;;;;-146.42;100.00;61981.06;4955205;28;20186;-65
2024/01/16 09:34:06;;;;;;;0.50;0.50;;;;;;;-146.42;100.00;61981.06;4972168;28;20632;-65
2024/01/16 09:36:35;;;;;;;0.50;0.50;;;;;;;-146.42;100.00;61981.06;4971479;28;20177;-65
2024/01/16 09:39:02;;;;;;;0.50;0.50;;;;;;;-146.42;100.00;61981.06;4971742;28;20619;-65
2024/01/16 09:41:27;;;;;;;0.40;0.40;;;;;;;-146.42;100.00;61981.06;4971716;28;20239;-65
2024/01/16 09:43:53;;;;;;;0.40;0.40;;;;;;;-146.42;100.00;61981.06;4971533;28;20190;-65
2024/01/16 09:46:22;;;;;;;0.40;0.40;;;;;;;-146.42;100.00;61981.06;4971619;28;20173;-65
2024/01/16 09:48:48;;;;;;;0.50;0.50;;;;;;;-146.42;100.00;61981.06;4972303;28;20185;-65
2024/01/16 09:51:14;;;;;;;1.23;1.17;;;;;;;-146.42;100.00;61981.06;4971736;28;20188;-65
2024/01/16 09:53:43;;;;;;;0.50;0.50;;;;;;;-146.42;100.00;61981.06;4962924;28;20187;-65
2024/01/16 09:56:16;;;;;;;0.50;0.50;;;;;;;-146.42;100.00;61981.06;4970839;28;20177;-66
2024/01/16 09:58:43;;;;;;;2.80;0.63;;;;;;;-146.42;100.00;61981.06;4971337;28;20197;-66
2024/01/16 10:01:09;;;;;;;0.40;0.40;;;;;;;-146.42;100.00;61981.06;4970536;28;20181;-66
2024/01/16 10:03:35;;;;;;;0.40;0.40;;;;;;;-146.42;100.00;61981.06;4971095;28;20906;-66
2024/01/16 10:06:06;;;;;;;1.07;1.07;;;;;;;-146.42;100.00;61981.06;4971050;28;20578;-66
2024/01/16 10:08:33;;;;;;;0.50;0.50;;;;;;;-146.42;100.00;61981.06;4970382;28;20170;-66
2024/01/16 10:10:59;;;;;;;0.40;0.40;;;;;;;-146.42;100.00;61981.06;4970977;28;20273;-67
2024/01/16 10:13:26;;;;;;;0.40;0.40;;;;;;;-146.42;100.00;61981.06;4970763;28;20178;-66
2024/01/16 10:15:52;;;;;;;0.60;0.60;;;;;;;-146.42;100.00;61981.06;4970312;28;20174;-66
2024/01/16 10:18:26;;;;;;;0.70;0.70;;;;;;;-146.42;100.00;61981.06;4970748;28;20240;-66
2024/01/16 10:20:53;;;;;;;0.60;0.60;;;;;;;-146.42;100.00;61981.06;4970893;28;20170;-67
2024/01/16 10:23:34;;;;;;;0.40;0.40;;;;;;;-146.42;100.00;61981.06;4970084;28;20627;-66
2024/01/16 10:26:07;;;;;;;0.40;0.40;;;;;;;-146.42;100.00;61981.06;4970425;28;20576;-65
2024/01/16 10:28:34;;;;;;;2.07;2.00;;;;;;;-146.42;100.00;61981.06;4970037;28;20184;-65
2024/01/16 10:31:04;;;;;;;0.60;0.60;;;;;;;-146.42;100.00;61981.06;4970068;28;20729;-65
2024/01/16 10:33:29;;;;;;;0.63;0.63;;;;;;;-146.42;100.00;61981.06;4970518;28;20675;-65
2024/01/16 10:36:12;;;;;;;0.93;0.93;;;;;;;-146.42;100.00;61981.06;4970657;28;20169;-65
2024/01/16 10:38:39;;;;;;;0.80;0.80;;;;;;;-146.42;100.00;61981.06;4970211;28;20570;-65
2024/01/16 10:41:17;;;;;;;0.40;0.40;;;;;;;-146.42;100.00;61981.06;4970960;28;20173;-64
2024/01/16 10:43:44;;;;;;;2.47;1.77;;;;;;;-146.42;100.00;61981.06;4970454;28;20251;-65
2024/01/16 10:46:17;;;;;;;0.40;0.40;;;;;;;-146.42;100.00;61981.06;4970680;28;20184;-65
2024/01/16 10:49:01;;;;;;;0.40;0.40;;;;;;;-146.42;100.00;61981.06;4971484;28;20651;-65
2024/01/16 10:51:29;;;;;;;1.73;1.63;;;;;;;-146.42;100.00;61981.06;4970881;28;20321;-64
2024/01/16 10:54:05;;;;;;;0.90;0.90;;;;;;;-146.42;100.00;61981.06;4971622;28;20181;-65
2024/01/16 10:56:31;;;;;;;0.53;0.53;;;;;;;-146.42;100.00;61981.06;4970838;28;20177;-65
2024/01/16 10:59:34;;;;;;;0.40;0.40;;;;;;;-146.42;100.00;61981.06;4971289;28;20184;-65
2024/01/16 11:02:04;;;;;;;0.40;0.40;;;;;;;-146.42;100.00;61981.06;4971239;28;20200;-65
2024/01/16 11:04:30;;;;;;;0.57;0.57;;;;;;;-146.42;100.00;61981.06;4971378;28;20225;-65
2024/01/16 11:06:57;;;;;;;0.40;0.40;;;;;;;-146.42;100.00;61981.06;4970672;28;20192;-65